createdAt,value
2022-11-28T00:01:19.823Z,63.05
2022-11-28T00:03:47.193Z,62.23
2022-11-28T00:06:14.371Z,62.43
2022-11-28T00:08:41.527Z,63.05
2022-11-28T00:11:10.301Z,64.97
2022-11-28T00:13:37.864Z,63.88
2022-11-28T00:16:07.601Z,62.09
2022-11-28T00:18:35.131Z,63.19
2022-11-28T00:21:07.759Z,63.59
2022-11-28T00:23:34.580Z,62.16
2022-11-28T00:26:04.212Z,61.09
2022-11-28T00:28:31.074Z,61.87
2022-11-28T00:30:58.164Z,62.87
2022-11-28T00:33:25.268Z,63.99
2022-11-28T00:35:52.097Z,65.77
2022-11-28T00:38:18.676Z,65.90
2022-11-28T00:40:45.388Z,63.71
2022-11-28T00:43:12.998Z,63.78
2022-11-28T00:45:39.807Z,62.83
2022-11-28T00:48:06.403Z,63.67
2022-11-28T00:50:33.162Z,62.15
2022-11-28T00:53:00.234Z,62.27
2022-11-28T00:55:27.219Z,62.25
2022-11-28T00:57:55.339Z,62.62
2022-11-28T01:00:22.155Z,63.34
2022-11-28T01:02:48.805Z,62.77
2022-11-28T01:05:15.569Z,63.12
2022-11-28T01:07:42.385Z,63.19
2022-11-28T01:10:11.405Z,64.74
2022-11-28T01:12:39.958Z,64.67
2022-11-28T01:15:09.343Z,63.95
2022-11-28T01:17:36.435Z,63.88
2022-11-28T01:20:05.244Z,63.03
2022-11-28T01:22:32.225Z,62.91
2022-11-28T01:24:58.908Z,62.85
2022-11-28T01:27:25.612Z,63.54
2022-11-28T01:29:52.508Z,64.04
2022-11-28T01:32:19.182Z,64.76
2022-11-28T01:34:45.815Z,63.82
2022-11-28T01:37:12.614Z,65.03
2022-11-28T01:39:39.204Z,66.31
2022-11-28T01:42:05.868Z,64.68
2022-11-28T01:44:32.664Z,64.71
2022-11-28T01:46:59.320Z,64.20
2022-11-28T01:49:30.577Z,64.35
2022-11-28T01:52:03.327Z,64.04
2022-11-28T01:54:31.872Z,64.97
2022-11-28T01:57:02.914Z,65.27
2022-11-28T01:59:33.972Z,64.75
2022-11-28T02:02:02.126Z,64.64
2022-11-28T02:04:29.048Z,64.46
2022-11-28T02:06:55.719Z,64.63
2022-11-28T02:09:22.712Z,65.63
2022-11-28T02:12:15.266Z,64.60
2022-11-28T02:15:03.282Z,65.07
2022-11-28T02:17:48.524Z,65.51
2022-11-28T02:20:53.109Z,65.83
2022-11-28T02:23:48.006Z,66.48
2022-11-28T02:26:23.627Z,66.16
2022-11-28T02:28:59.087Z,65.29
2022-11-28T02:32:03.346Z,65.53
2022-11-28T02:34:57.067Z,64.90
2022-11-28T02:37:45.349Z,64.68
2022-11-28T02:40:32.470Z,65.54
2022-11-28T02:43:10.157Z,65.14
2022-11-28T02:46:11.253Z,64.80
2022-11-28T02:48:56.126Z,63.91
2022-11-28T02:51:26.003Z,63.54
2022-11-28T02:53:55.220Z,63.58
2022-11-28T02:56:24.423Z,63.77
2022-11-28T02:58:51.536Z,64.52
2022-11-28T03:01:27.720Z,63.64
2022-11-28T03:03:54.530Z,61.65
2022-11-28T03:06:27.298Z,61.99
2022-11-28T03:09:13.910Z,63.21
2022-11-28T03:12:18.405Z,62.51
2022-11-28T03:14:52.508Z,63.50
2022-11-28T03:17:26.604Z,63.64
2022-11-28T03:20:13.304Z,62.96
2022-11-28T03:23:16.406Z,62.70
2022-11-28T03:26:00.507Z,63.72
2022-11-28T03:28:47.224Z,63.34
2022-11-28T03:31:24.544Z,65.39
2022-11-28T03:33:55.798Z,64.00
2022-11-28T03:36:27.824Z,63.37
2022-11-28T03:39:00.908Z,62.82
2022-11-28T03:42:04.992Z,63.49
2022-11-28T03:44:44.647Z,64.50
2022-11-28T03:47:11.846Z,64.36
2022-11-28T03:49:40.572Z,64.69
2022-11-28T03:52:12.179Z,63.72
2022-11-28T03:54:41.924Z,64.32
2022-11-28T03:57:19.670Z,64.89
2022-11-28T03:59:54.146Z,64.90
2022-11-28T04:02:30.995Z,67.33
2022-11-28T04:05:09.105Z,68.30
2022-11-28T04:07:42.929Z,67.29
2022-11-28T04:10:26.652Z,65.45
2022-11-28T04:12:57.318Z,65.30
2022-11-28T04:15:37.463Z,66.79
2022-11-28T04:18:10.226Z,64.88
2022-11-28T04:20:48.063Z,63.98
2022-11-28T04:23:18.279Z,64.47
2022-11-28T04:26:11.869Z,64.75
2022-11-28T04:28:40.737Z,64.41
2022-11-28T04:31:18.861Z,64.55
2022-11-28T04:33:50.711Z,64.43
2022-11-28T04:36:20.106Z,67.29
2022-11-28T04:38:56.089Z,67.84
2022-11-28T04:41:46.663Z,65.71
2022-11-28T04:44:33.242Z,67.61
2022-11-28T04:47:00.001Z,66.07
2022-11-28T04:49:29.207Z,64.96
2022-11-28T04:52:07.732Z,65.29
2022-11-28T04:54:46.904Z,65.08
2022-11-28T04:57:30.558Z,64.52
2022-11-28T04:59:58.305Z,64.99
2022-11-28T05:02:25.870Z,64.74
2022-11-28T05:04:55.911Z,64.61
2022-11-28T05:07:24.933Z,64.45
2022-11-28T05:09:51.874Z,65.48
2022-11-28T05:12:18.607Z,64.56
2022-11-28T05:14:45.378Z,64.13
2022-11-28T05:17:13.497Z,63.74
2022-11-28T05:19:40.195Z,64.12
2022-11-28T05:22:06.899Z,64.34
2022-11-28T05:24:33.617Z,64.35
2022-11-28T05:27:00.722Z,63.76
2022-11-28T05:29:27.406Z,63.97
2022-11-28T05:31:54.176Z,64.38
2022-11-28T05:34:21.027Z,64.00
2022-11-28T05:36:47.558Z,63.51
2022-11-28T05:39:15.036Z,64.28
2022-11-28T05:41:41.651Z,64.31
2022-11-28T05:44:10.224Z,64.06
2022-11-28T05:46:36.845Z,64.64
2022-11-28T05:49:03.612Z,65.33
2022-11-28T05:51:30.079Z,64.60
2022-11-28T05:53:56.832Z,64.86
2022-11-28T05:56:23.556Z,65.36
2022-11-28T05:58:50.659Z,64.92
2022-11-28T06:01:24.399Z,65.01
2022-11-28T06:03:52.399Z,66.25
2022-11-28T06:06:21.789Z,64.97
2022-11-28T06:08:49.908Z,64.31
2022-11-28T06:11:17.068Z,64.58
2022-11-28T06:13:45.547Z,65.34
2022-11-28T06:16:16.974Z,65.06
2022-11-28T06:18:44.484Z,64.80
2022-11-28T06:21:12.753Z,64.12
2022-11-28T06:23:41.152Z,64.03
2022-11-28T06:26:11.436Z,64.26
2022-11-28T06:28:39.299Z,63.56
2022-11-28T06:31:13.961Z,64.63
2022-11-28T06:33:41.717Z,64.95
2022-11-28T06:36:10.498Z,65.39
2022-11-28T06:38:38.264Z,64.47
2022-11-28T06:41:11.411Z,63.26
2022-11-28T06:43:38.598Z,64.20
2022-11-28T06:46:05.426Z,64.18
2022-11-28T06:48:32.556Z,64.64
2022-11-28T06:51:04.521Z,65.81
2022-11-28T06:53:31.750Z,64.82
2022-11-28T06:55:58.699Z,64.06
2022-11-28T06:58:25.440Z,64.67
2022-11-28T07:00:52.148Z,64.93
2022-11-28T07:03:18.846Z,65.24
2022-11-28T07:05:45.693Z,64.53
2022-11-28T07:08:12.384Z,64.46
2022-11-28T07:10:39.391Z,65.17
2022-11-28T07:13:06.023Z,64.70
2022-11-28T07:15:32.695Z,64.18
2022-11-28T07:17:59.298Z,63.45
2022-11-28T07:20:25.910Z,63.55
2022-11-28T07:22:52.914Z,63.24
2022-11-28T07:25:19.684Z,63.64
2022-11-28T07:27:46.283Z,62.93
2022-11-28T07:30:13.351Z,63.18
2022-11-28T07:32:41.123Z,63.64
2022-11-28T07:35:09.038Z,63.40
2022-11-28T07:37:36.515Z,63.39
2022-11-28T07:40:04.277Z,63.38
2022-11-28T07:42:30.891Z,63.67
2022-11-28T07:45:04.279Z,63.96
2022-11-28T07:47:34.859Z,63.83
2022-11-28T07:50:01.541Z,63.93
2022-11-28T07:52:28.165Z,64.00
2022-11-28T07:54:55.240Z,63.90
2022-11-28T07:57:22.495Z,64.27
2022-11-28T07:59:49.119Z,63.40
2022-11-28T08:02:16.068Z,63.98
2022-11-28T08:04:48.599Z,63.24
2022-11-28T08:07:17.255Z,63.49
2022-11-28T08:09:44.175Z,63.38
2022-11-28T08:12:12.261Z,63.40
2022-11-28T08:14:38.980Z,63.52
2022-11-28T08:17:05.685Z,64.48
2022-11-28T08:19:35.398Z,63.53
2022-11-28T08:22:02.334Z,64.93
2022-11-28T08:24:28.893Z,64.83
2022-11-28T08:26:55.439Z,65.55
2022-11-28T08:29:22.149Z,64.01
2022-11-28T08:31:48.792Z,64.00
2022-11-28T08:34:15.528Z,64.48
2022-11-28T08:36:43.533Z,65.63
2022-11-28T08:39:27.536Z,65.97
2022-11-28T08:41:59.878Z,64.46
2022-11-28T08:44:30.234Z,64.59
2022-11-28T08:46:57.314Z,63.98
2022-11-28T08:49:23.851Z,64.44
2022-11-28T08:51:51.246Z,64.56
2022-11-28T08:54:17.861Z,64.15
2022-11-28T08:56:46.821Z,64.49
2022-11-28T08:59:13.779Z,64.50
2022-11-28T09:01:41.035Z,65.14
2022-11-28T09:04:07.966Z,65.25
2022-11-28T09:06:34.674Z,64.79
2022-11-28T09:09:03.008Z,65.27
2022-11-28T09:11:29.753Z,64.90
2022-11-28T09:13:56.833Z,64.43
2022-11-28T09:16:23.562Z,63.99
2022-11-28T09:18:54.885Z,63.63
2022-11-28T09:21:21.753Z,65.83
2022-11-28T09:23:48.345Z,64.98
2022-11-28T09:26:20.174Z,65.16
2022-11-28T09:28:48.223Z,64.94
2022-11-28T09:31:16.968Z,64.93
2022-11-28T09:33:44.265Z,64.20
2022-11-28T09:36:13.784Z,63.86
2022-11-28T09:38:40.500Z,64.74
2022-11-28T09:41:25.898Z,64.15
2022-11-28T09:43:55.732Z,64.21
2022-11-28T09:46:28.792Z,64.65
2022-11-28T09:49:00.539Z,64.45
2022-11-28T09:51:55.347Z,65.35
2022-11-28T09:54:50.212Z,65.41
2022-11-28T09:57:29.782Z,65.26
2022-11-28T09:59:56.459Z,64.97
2022-11-28T10:02:39.834Z,64.24
2022-11-28T10:05:20.656Z,65.35
2022-11-28T10:07:55.105Z,64.52
2022-11-28T10:10:31.138Z,63.23
2022-11-28T10:12:57.782Z,62.73
2022-11-28T10:15:33.597Z,63.39
2022-11-28T10:18:33.328Z,63.15
2022-11-28T10:21:12.922Z,62.50
2022-11-28T10:23:45.395Z,62.16
2022-11-28T10:26:25.707Z,62.37
2022-11-28T10:28:55.598Z,63.19
2022-11-28T10:31:33.575Z,63.32
2022-11-28T10:34:09.626Z,62.40
2022-11-28T10:37:02.370Z,63.06
2022-11-28T10:39:29.124Z,62.10
2022-11-28T10:42:11.903Z,62.20
2022-11-28T10:44:44.513Z,62.88
2022-11-28T10:47:20.129Z,61.87
2022-11-28T10:50:05.829Z,61.78
2022-11-28T10:52:49.618Z,60.50
2022-11-28T10:55:58.510Z,60.64
2022-11-28T10:58:37.124Z,60.29
2022-11-28T11:01:04.613Z,59.32
2022-11-28T11:03:35.784Z,60.94
2022-11-28T11:06:03.106Z,61.18
2022-11-28T11:08:34.970Z,61.04
2022-11-28T11:11:04.525Z,61.53
2022-11-28T11:13:55.641Z,60.94
2022-11-28T11:16:22.963Z,61.74
2022-11-28T11:18:49.547Z,61.55
2022-11-28T11:21:25.037Z,60.67
2022-11-28T11:24:27.050Z,61.22
2022-11-28T11:27:02.415Z,61.27
2022-11-28T11:29:29.102Z,60.31
2022-11-28T11:31:55.873Z,59.33
2022-11-28T11:34:24.326Z,59.55
2022-11-28T11:36:51.717Z,60.48
2022-11-28T11:39:25.667Z,59.60
2022-11-28T11:42:11.518Z,58.96
2022-11-28T11:44:38.154Z,58.84
2022-11-28T11:47:06.481Z,61.18
2022-11-28T11:49:37.227Z,61.01
2022-11-28T11:52:15.027Z,60.96
2022-11-28T11:54:58.458Z,60.61
2022-11-28T11:57:44.371Z,60.98
2022-11-28T12:00:20.998Z,61.52
2022-11-28T12:02:54.090Z,62.11
2022-11-28T12:05:28.458Z,61.20
2022-11-28T12:08:02.322Z,61.72
2022-11-28T12:10:34.651Z,62.51
2022-11-28T12:13:04.833Z,61.94
2022-11-28T12:15:45.423Z,61.61
2022-11-28T12:18:35.906Z,60.99
2022-11-28T12:21:19.071Z,60.81
2022-11-28T12:24:10.034Z,60.32
2022-11-28T12:26:43.071Z,61.70
2022-11-28T12:29:38.539Z,62.27
2022-11-28T12:32:36.294Z,61.33
2022-11-28T12:35:42.782Z,59.69
2022-11-28T12:38:24.788Z,60.20
2022-11-28T12:41:16.280Z,59.95
2022-11-28T12:43:57.957Z,60.21
2022-11-28T12:46:49.257Z,59.64
2022-11-28T12:49:22.978Z,60.68
2022-11-28T12:52:31.561Z,60.80
2022-11-28T12:55:04.244Z,60.62
2022-11-28T12:57:45.359Z,61.09
2022-11-28T13:00:25.250Z,61.86
2022-11-28T13:03:26.279Z,60.01
2022-11-28T13:06:05.138Z,60.52
2022-11-28T13:08:49.377Z,59.82
2022-11-28T13:11:22.125Z,60.29
2022-11-28T13:13:59.087Z,60.15
2022-11-28T13:16:48.101Z,59.17
2022-11-28T13:19:33.252Z,58.85
2022-11-28T13:22:23.443Z,59.77
2022-11-28T13:25:07.025Z,60.59
2022-11-28T13:27:56.699Z,61.43
2022-11-28T13:30:26.044Z,60.87
2022-11-28T13:33:16.718Z,61.10
2022-11-28T13:35:46.463Z,61.18
2022-11-28T13:38:42.533Z,60.64
2022-11-28T13:42:09.654Z,61.30
2022-11-28T13:44:49.883Z,60.11
2022-11-28T13:47:22.486Z,61.06
2022-11-28T13:49:49.613Z,59.80
2022-11-28T13:52:19.175Z,58.87
2022-11-28T13:54:53.855Z,58.85
2022-11-28T13:57:29.722Z,59.52
2022-11-28T14:00:06.897Z,60.38
2022-11-28T14:02:46.498Z,60.43
2022-11-28T14:05:37.176Z,59.86
2022-11-28T14:08:05.611Z,60.78
2022-11-28T14:10:49.585Z,60.40
2022-11-28T14:13:44.124Z,59.29
2022-11-28T14:16:54.517Z,59.53
2022-11-28T14:19:30.440Z,59.71
2022-11-28T14:22:22.405Z,59.17
2022-11-28T14:25:01.175Z,59.51
2022-11-28T14:27:36.247Z,59.69
2022-11-28T14:30:07.655Z,59.61
2022-11-28T14:32:36.611Z,59.25
2022-11-28T14:35:06.788Z,59.69
2022-11-28T14:37:47.779Z,59.53
2022-11-28T14:40:53.394Z,58.65
2022-11-28T14:43:43.838Z,59.05
2022-11-28T14:46:22.254Z,59.40
2022-11-28T14:48:58.244Z,59.12
2022-11-28T14:52:00.039Z,59.18
2022-11-28T14:54:42.479Z,58.79
2022-11-28T14:57:16.718Z,58.96
2022-11-28T14:59:43.956Z,58.90
2022-11-28T15:02:11.006Z,59.30
2022-11-28T15:04:50.040Z,59.67
2022-11-28T15:07:50.221Z,59.47
2022-11-28T15:10:52.967Z,59.73
2022-11-28T15:13:20.034Z,59.51
2022-11-28T15:15:51.900Z,59.47
2022-11-28T15:18:25.240Z,59.61
2022-11-28T15:21:03.277Z,60.07
2022-11-28T15:23:31.996Z,59.98
2022-11-28T15:26:00.210Z,58.84
2022-11-28T15:28:28.937Z,59.37
2022-11-28T15:30:57.680Z,59.09
2022-11-28T15:33:26.402Z,58.63
2022-11-28T15:36:20.858Z,58.90
2022-11-28T15:38:48.502Z,58.60
2022-11-28T15:41:21.249Z,58.44
2022-11-28T15:43:48.228Z,58.52
2022-11-28T15:46:21.037Z,58.50
2022-11-28T15:48:50.139Z,58.76
2022-11-28T15:51:32.693Z,58.52
2022-11-28T15:54:00.523Z,59.06
2022-11-28T15:56:27.466Z,59.03
2022-11-28T15:58:54.409Z,59.11
2022-11-28T16:01:24.024Z,58.45
2022-11-28T16:03:59.642Z,59.07
2022-11-28T16:06:36.618Z,59.17
2022-11-28T16:09:29.470Z,59.16
2022-11-28T16:11:56.515Z,59.36
2022-11-28T16:14:40.558Z,59.75
2022-11-28T16:17:23.801Z,62.10
2022-11-28T16:19:53.974Z,61.83
2022-11-28T16:22:27.289Z,61.03
2022-11-28T16:24:55.995Z,60.35
2022-11-28T16:27:29.199Z,59.58
2022-11-28T16:29:56.378Z,59.76
2022-11-28T16:32:37.934Z,59.79
2022-11-28T16:35:06.111Z,59.87
2022-11-28T16:37:33.361Z,60.22
2022-11-28T16:40:06.777Z,61.58
2022-11-28T16:42:35.458Z,60.32
2022-11-28T16:45:21.220Z,60.40
2022-11-28T16:47:55.827Z,59.59
2022-11-28T16:50:23.940Z,59.02
2022-11-28T16:53:00.262Z,58.87
2022-11-28T16:55:38.242Z,58.79
2022-11-28T16:58:21.178Z,58.56
2022-11-28T17:00:59.340Z,58.57
2022-11-28T17:03:42.213Z,58.56
2022-11-28T17:06:18.239Z,59.40
2022-11-28T17:08:45.329Z,62.34
2022-11-28T17:11:13.791Z,60.92
2022-11-28T17:13:40.616Z,59.20
2022-11-28T17:16:16.218Z,58.80
2022-11-28T17:18:43.841Z,58.27
2022-11-28T17:21:12.417Z,58.34
2022-11-28T17:23:40.965Z,58.38
2022-11-28T17:26:08.534Z,58.04
2022-11-28T17:28:35.280Z,58.44
2022-11-28T17:31:01.894Z,59.34
2022-11-28T17:33:28.590Z,59.04
2022-11-28T17:35:56.251Z,59.00
2022-11-28T17:38:22.936Z,59.56
2022-11-28T17:40:49.457Z,59.13
2022-11-28T17:43:18.279Z,59.09
2022-11-28T17:45:45.749Z,59.36
2022-11-28T17:48:18.999Z,59.12
2022-11-28T17:50:50.605Z,58.67
2022-11-28T17:53:19.603Z,59.09
2022-11-28T17:55:48.864Z,59.03
2022-11-28T17:58:23.936Z,59.52
2022-11-28T18:00:53.943Z,58.85
2022-11-28T18:03:29.241Z,59.52
2022-11-28T18:05:55.923Z,59.42
2022-11-28T18:08:22.911Z,59.61
2022-11-28T18:10:50.780Z,59.87
2022-11-28T18:13:18.059Z,59.87
2022-11-28T18:15:47.552Z,60.64
2022-11-28T18:18:15.551Z,59.98
2022-11-28T18:20:42.582Z,60.40
2022-11-28T18:23:10.488Z,60.58
2022-11-28T18:25:41.686Z,60.32
2022-11-28T18:28:08.420Z,61.39
2022-11-28T18:30:35.107Z,62.33
2022-11-28T18:33:01.928Z,61.48
2022-11-28T18:35:28.636Z,62.58
2022-11-28T18:37:55.578Z,61.96
2022-11-28T18:40:22.185Z,62.81
2022-11-28T18:42:48.838Z,62.18
2022-11-28T18:45:15.622Z,61.37
2022-11-28T18:47:42.547Z,61.00
2022-11-28T18:50:09.540Z,60.64
2022-11-28T18:52:36.303Z,60.64
2022-11-28T18:55:04.114Z,60.55
2022-11-28T18:57:34.709Z,60.41
2022-11-28T19:00:02.132Z,60.84
2022-11-28T19:02:29.460Z,60.73
2022-11-28T19:04:56.882Z,60.02
2022-11-28T19:07:24.873Z,60.00
2022-11-28T19:09:52.554Z,60.14
2022-11-28T19:12:20.372Z,59.56
2022-11-28T19:14:47.045Z,59.91
2022-11-28T19:17:14.184Z,59.62
2022-11-28T19:19:41.385Z,59.97
2022-11-28T19:22:08.383Z,60.31
2022-11-28T19:24:35.202Z,60.13
2022-11-28T19:27:01.956Z,60.76
2022-11-28T19:29:28.531Z,60.40
2022-11-28T19:31:55.580Z,60.44
2022-11-28T19:34:23.064Z,60.14
2022-11-28T19:36:51.160Z,60.03
2022-11-28T19:39:19.858Z,59.92
2022-11-28T19:41:47.391Z,60.33
2022-11-28T19:44:14.980Z,61.28
2022-11-28T19:46:42.805Z,60.99
2022-11-28T19:49:19.337Z,61.19
2022-11-28T19:51:47.171Z,60.99
2022-11-28T19:54:15.247Z,60.83
2022-11-28T19:56:42.193Z,60.78
2022-11-28T19:59:10.635Z,60.23
2022-11-28T20:01:38.958Z,59.89
2022-11-28T20:04:06.018Z,60.29
2022-11-28T20:06:34.106Z,60.99
2022-11-28T20:09:07.333Z,61.34
2022-11-28T20:11:37.740Z,61.27
2022-11-28T20:14:06.969Z,62.35
2022-11-28T20:16:35.835Z,61.73
2022-11-28T20:19:05.817Z,61.69
2022-11-28T20:21:34.264Z,61.45
2022-11-28T20:24:07.343Z,61.32
2022-11-28T20:26:38.831Z,60.78
2022-11-28T20:29:06.249Z,60.85
2022-11-28T20:31:42.056Z,61.30
2022-11-28T20:34:08.945Z,61.31
2022-11-28T20:36:36.336Z,61.46
2022-11-28T20:39:04.658Z,61.53
2022-11-28T20:41:31.324Z,61.48
2022-11-28T20:44:01.946Z,61.46
2022-11-28T20:46:31.023Z,61.60
2022-11-28T20:48:59.886Z,61.13
2022-11-28T20:51:28.913Z,61.45
2022-11-28T20:53:57.989Z,62.05
2022-11-28T20:56:27.814Z,61.90
2022-11-28T20:58:54.700Z,61.81
2022-11-28T21:01:24.707Z,61.73
2022-11-28T21:03:52.403Z,62.02
2022-11-28T21:06:19.641Z,61.32
2022-11-28T21:08:46.757Z,61.35
2022-11-28T21:11:30.976Z,61.06
2022-11-28T21:14:04.949Z,60.74
2022-11-28T21:16:33.286Z,60.45
2022-11-28T21:19:07.633Z,60.03
2022-11-28T21:21:37.184Z,60.17
2022-11-28T21:24:12.547Z,60.06
2022-11-28T21:26:53.859Z,60.37
2022-11-28T21:29:22.208Z,60.38
2022-11-28T21:31:49.094Z,60.38
2022-11-28T21:34:16.758Z,60.83
2022-11-28T21:36:44.192Z,60.35
2022-11-28T21:39:14.042Z,61.80
2022-11-28T21:41:40.996Z,64.15
2022-11-28T21:44:08.193Z,65.12
2022-11-28T21:46:34.860Z,64.12
2022-11-28T21:49:01.984Z,63.30
2022-11-28T21:51:28.845Z,63.13
2022-11-28T21:53:57.598Z,63.90
2022-11-28T21:56:24.991Z,64.23
2022-11-28T21:58:52.428Z,65.90
2022-11-28T22:01:20.353Z,63.83
2022-11-28T22:03:49.116Z,65.37
2022-11-28T22:06:21.842Z,64.81
2022-11-28T22:08:49.132Z,64.92
2022-11-28T22:11:16.521Z,62.55
2022-11-28T22:13:47.168Z,61.49
2022-11-28T22:16:18.809Z,61.15
2022-11-28T22:18:47.383Z,61.25
2022-11-28T22:21:49.977Z,62.05
2022-11-28T22:24:03.330Z,62.24
2022-11-28T22:26:30.045Z,62.54
2022-11-28T22:28:58.905Z,63.17
2022-11-28T22:31:25.909Z,63.45
2022-11-28T22:33:52.864Z,63.87
2022-11-28T22:36:21.579Z,63.94
2022-11-28T22:38:49.540Z,63.34
2022-11-28T22:41:27.625Z,62.91
2022-11-28T22:43:57.312Z,62.44
2022-11-28T22:46:24.353Z,62.02
2022-11-28T22:48:51.947Z,61.71
2022-11-28T22:51:21.822Z,62.41
2022-11-28T22:53:52.834Z,61.86
2022-11-28T22:56:19.538Z,62.31
2022-11-28T22:58:46.583Z,63.11
2022-11-28T23:01:17.396Z,65.10
2022-11-28T23:03:45.448Z,65.69
2022-11-28T23:06:19.382Z,65.51
2022-11-28T23:08:46.817Z,65.03
2022-11-28T23:11:17.722Z,64.51
2022-11-28T23:13:45.526Z,63.28
2022-11-28T23:16:28.079Z,64.20
2022-11-28T23:18:58.078Z,64.29
2022-11-28T23:21:28.344Z,65.15
2022-11-28T23:23:55.564Z,64.48
2022-11-28T23:26:24.902Z,64.05
2022-11-28T23:28:53.527Z,63.69
2022-11-28T23:31:23.249Z,63.14
2022-11-28T23:33:50.676Z,62.47
2022-11-28T23:36:29.830Z,63.59
2022-11-28T23:39:01.061Z,63.61
2022-11-28T23:41:29.794Z,63.25
2022-11-28T23:43:57.214Z,64.00
2022-11-28T23:46:25.101Z,64.53
2022-11-28T23:48:52.168Z,63.00
2022-11-28T23:51:21.895Z,64.60
2022-11-28T23:53:50.000Z,64.59
2022-11-28T23:56:23.148Z,67.16
2022-11-28T23:58:50.983Z,67.25
